createdAt,value
2018-06-15T00:00:12.030Z,18.14
2018-06-15T00:02:40.422Z,18.16
2018-06-15T00:05:08.838Z,18.16
2018-06-15T00:07:37.209Z,18.17
2018-06-15T00:10:05.627Z,18.18
2018-06-15T00:12:33.998Z,18.18
2018-06-15T00:15:02.394Z,18.19
2018-06-15T00:17:30.798Z,18.19
2018-06-15T00:19:59.238Z,18.19
2018-06-15T00:22:27.614Z,18.19
2018-06-15T00:24:55.990Z,18.19
2018-06-15T00:27:24.387Z,18.19
2018-06-15T00:29:52.767Z,18.19
2018-06-15T00:32:21.153Z,18.21
2018-06-15T00:34:49.517Z,18.23
2018-06-15T00:37:17.920Z,18.23
2018-06-15T00:39:46.293Z,18.25
2018-06-15T00:42:14.687Z,18.27
2018-06-15T00:44:43.378Z,18.26
2018-06-15T00:47:11.769Z,18.26
2018-06-15T00:49:40.143Z,18.28
2018-06-15T00:52:08.552Z,18.27
2018-06-15T00:54:36.946Z,18.27
2018-06-15T00:57:16.693Z,18.27
2018-06-15T00:59:45.067Z,18.27
2018-06-15T01:02:13.446Z,18.27
2018-06-15T01:04:41.870Z,18.26
2018-06-15T01:07:10.263Z,18.26
2018-06-15T01:09:38.812Z,18.26
2018-06-15T01:12:07.189Z,18.25
2018-06-15T01:14:35.681Z,18.22
2018-06-15T01:17:04.066Z,18.22
2018-06-15T01:19:32.646Z,18.21
2018-06-15T01:22:01.027Z,18.23
2018-06-15T01:24:29.438Z,18.21
2018-06-15T01:26:58.066Z,18.21
2018-06-15T01:29:26.506Z,18.20
2018-06-15T01:31:55.031Z,18.21
2018-06-15T01:34:23.429Z,18.19
2018-06-15T01:36:51.843Z,18.19
2018-06-15T01:39:20.267Z,18.18
2018-06-15T01:41:48.652Z,18.19
2018-06-15T01:44:17.063Z,18.18
2018-06-15T01:46:45.446Z,18.18
2018-06-15T01:49:13.841Z,18.18
2018-06-15T01:51:42.226Z,18.18
2018-06-15T01:54:10.634Z,18.18
2018-06-15T01:56:39.015Z,18.17
2018-06-15T01:59:07.430Z,18.17
2018-06-15T02:01:35.808Z,18.17
2018-06-15T02:04:04.206Z,18.16
2018-06-15T02:06:32.611Z,18.16
2018-06-15T02:09:01.030Z,18.16
2018-06-15T02:11:30.221Z,18.16
2018-06-15T02:13:58.604Z,18.15
2018-06-15T02:16:27.010Z,18.13
2018-06-15T02:18:55.391Z,18.13
2018-06-15T02:21:23.818Z,18.11
2018-06-15T02:23:52.226Z,18.10
2018-06-15T02:26:20.651Z,18.09
2018-06-15T02:28:49.030Z,18.08
2018-06-15T02:31:17.426Z,18.06
2018-06-15T02:33:45.811Z,18.06
2018-06-15T02:36:14.219Z,18.05
2018-06-15T02:38:42.609Z,18.04
2018-06-15T02:41:11.015Z,18.02
2018-06-15T02:43:39.385Z,18.00
2018-06-15T02:46:07.783Z,18.00
2018-06-15T02:48:36.172Z,17.98
2018-06-15T02:51:04.582Z,17.98
2018-06-15T02:53:32.962Z,17.98
2018-06-15T02:56:01.381Z,17.99
2018-06-15T02:58:29.763Z,17.99
2018-06-15T03:00:58.159Z,18.00
2018-06-15T03:03:26.535Z,18.01
2018-06-15T03:05:54.967Z,18.00
2018-06-15T03:08:23.347Z,18.00
2018-06-15T03:10:51.746Z,18.02
2018-06-15T03:13:20.127Z,18.00
2018-06-15T03:15:48.526Z,17.99
2018-06-15T03:18:17.487Z,17.98
2018-06-15T03:20:45.891Z,17.97
2018-06-15T03:23:14.267Z,17.95
2018-06-15T03:25:42.679Z,17.95
2018-06-15T03:28:11.055Z,17.93
2018-06-15T03:30:39.431Z,17.91
2018-06-15T03:33:07.836Z,17.91
2018-06-15T03:35:36.270Z,17.89
2018-06-15T03:38:04.674Z,17.93
2018-06-15T03:40:33.055Z,17.93
2018-06-15T03:43:01.455Z,17.94
2018-06-15T03:45:29.835Z,17.94
2018-06-15T03:47:58.242Z,17.94
2018-06-15T03:50:26.708Z,17.95
2018-06-15T03:52:55.126Z,17.94
2018-06-15T03:55:23.498Z,17.95
2018-06-15T03:57:51.898Z,17.96
2018-06-15T04:00:20.274Z,17.97
2018-06-15T04:02:48.770Z,17.96
2018-06-15T04:05:17.170Z,17.96
2018-06-15T04:07:45.627Z,17.96
2018-06-15T04:10:13.991Z,17.96
2018-06-15T04:12:42.390Z,17.98
2018-06-15T04:15:10.778Z,18.00
2018-06-15T04:17:39.180Z,18.00
2018-06-15T04:20:07.561Z,18.02
2018-06-15T04:22:35.963Z,18.03
2018-06-15T04:25:04.344Z,18.03
2018-06-15T04:27:32.746Z,18.04
2018-06-15T04:30:01.122Z,18.05
2018-06-15T04:32:29.626Z,18.06
2018-06-15T04:34:58.010Z,18.08
2018-06-15T04:37:26.465Z,18.10
2018-06-15T04:39:54.821Z,18.13
2018-06-15T04:42:23.227Z,18.14
2018-06-15T04:44:51.607Z,18.15
2018-06-15T04:47:20.019Z,18.17
2018-06-15T04:49:48.427Z,18.17
2018-06-15T04:52:16.800Z,18.18
2018-06-15T04:54:45.198Z,18.19
2018-06-15T04:57:13.575Z,18.20
2018-06-15T04:59:42.027Z,18.22
2018-06-15T05:02:10.410Z,18.24
2018-06-15T05:04:38.834Z,18.25
2018-06-15T05:07:07.220Z,18.28
2018-06-15T05:09:35.619Z,18.34
2018-06-15T05:12:03.999Z,18.42
2018-06-15T05:14:32.403Z,18.48
2018-06-15T05:17:00.824Z,18.51
2018-06-15T05:19:29.227Z,18.56
2018-06-15T05:21:57.618Z,18.62
2018-06-15T05:24:26.024Z,18.69
2018-06-15T05:26:54.411Z,18.78
2018-06-15T05:29:23.162Z,18.84
2018-06-15T05:31:51.551Z,18.93
2018-06-15T05:34:19.946Z,19.01
2018-06-15T05:36:48.328Z,19.09
2018-06-15T05:39:16.756Z,19.17
2018-06-15T05:41:45.139Z,19.24
2018-06-15T05:44:13.589Z,19.30
2018-06-15T05:46:42.002Z,19.34
2018-06-15T05:49:10.386Z,19.37
2018-06-15T05:51:38.871Z,19.42
2018-06-15T05:54:07.250Z,19.47
2018-06-15T05:56:35.663Z,19.52
2018-06-15T05:59:04.063Z,19.61
2018-06-15T06:01:32.504Z,19.64
2018-06-15T06:04:00.996Z,19.69
2018-06-15T06:06:29.378Z,19.73
2018-06-15T06:08:57.759Z,19.75
2018-06-15T06:11:26.164Z,19.78
2018-06-15T06:13:54.539Z,19.80
2018-06-15T06:16:22.938Z,19.81
2018-06-15T06:18:51.314Z,19.82
2018-06-15T06:21:19.719Z,19.84
2018-06-15T06:23:48.099Z,19.89
2018-06-15T06:26:16.507Z,19.92
2018-06-15T06:28:44.886Z,19.91
2018-06-15T06:31:13.305Z,19.89
2018-06-15T06:33:41.689Z,19.91
2018-06-15T06:36:10.066Z,19.97
2018-06-15T06:38:38.462Z,20.01
2018-06-15T06:41:06.983Z,20.07
2018-06-15T06:43:35.406Z,20.11
2018-06-15T06:46:03.798Z,20.16
2018-06-15T06:48:32.190Z,20.16
2018-06-15T06:51:00.567Z,20.16
2018-06-15T06:53:28.990Z,20.14
2018-06-15T06:55:57.362Z,20.08
2018-06-15T06:58:25.782Z,20.02
2018-06-15T07:00:54.165Z,19.98
2018-06-15T07:03:22.567Z,19.94
2018-06-15T07:05:50.966Z,19.94
2018-06-15T07:08:19.367Z,19.99
2018-06-15T07:10:47.747Z,20.06
2018-06-15T07:13:16.188Z,20.13
2018-06-15T07:15:44.570Z,20.20
2018-06-15T07:18:13.143Z,20.32
2018-06-15T07:20:41.610Z,20.47
2018-06-15T07:23:10.091Z,20.59
2018-06-15T07:25:38.480Z,20.79
2018-06-15T07:28:06.874Z,20.89
2018-06-15T07:30:35.250Z,21.00
2018-06-15T07:33:03.711Z,21.09
2018-06-15T07:35:32.111Z,21.18
2018-06-15T07:38:00.486Z,21.26
2018-06-15T07:40:28.890Z,21.30
2018-06-15T07:42:57.331Z,21.32
2018-06-15T07:45:25.723Z,21.32
2018-06-15T07:47:54.095Z,21.19
2018-06-15T07:50:22.498Z,21.26
2018-06-15T07:52:50.888Z,21.24
2018-06-15T07:55:19.363Z,21.21
2018-06-15T07:57:47.771Z,21.21
2018-06-15T08:00:16.171Z,21.24
2018-06-15T08:02:44.546Z,21.28
2018-06-15T08:05:12.967Z,21.34
2018-06-15T08:07:41.351Z,21.41
2018-06-15T08:10:09.753Z,21.47
2018-06-15T08:12:38.188Z,21.52
2018-06-15T08:15:06.582Z,21.60
2018-06-15T08:17:34.958Z,21.72
2018-06-15T08:20:03.362Z,21.91
2018-06-15T08:22:31.738Z,22.07
2018-06-15T08:25:00.141Z,22.21
2018-06-15T08:27:28.532Z,22.30
2018-06-15T08:29:56.934Z,22.33
2018-06-15T08:32:25.310Z,22.36
2018-06-15T08:34:53.715Z,22.41
2018-06-15T08:37:22.090Z,22.46
2018-06-15T08:39:50.526Z,22.48
2018-06-15T08:42:18.914Z,22.47
2018-06-15T08:44:47.347Z,22.48
2018-06-15T08:47:15.721Z,22.55
2018-06-15T08:49:44.185Z,22.66
2018-06-15T08:52:12.588Z,22.81
2018-06-15T08:54:40.971Z,22.96
2018-06-15T08:57:09.370Z,23.08
2018-06-15T08:59:37.789Z,23.25
2018-06-15T09:02:06.195Z,23.42
2018-06-15T09:04:34.574Z,23.47
2018-06-15T09:07:02.999Z,23.80
2018-06-15T09:09:31.370Z,23.98
2018-06-15T09:11:59.774Z,24.12
2018-06-15T09:14:28.147Z,24.29
2018-06-15T09:16:56.538Z,24.40
2018-06-15T09:19:25.163Z,24.50
2018-06-15T09:21:53.567Z,24.57
2018-06-15T09:24:21.943Z,24.60
2018-06-15T09:26:50.339Z,24.61
2018-06-15T09:29:18.710Z,24.61
2018-06-15T09:31:47.109Z,24.57
2018-06-15T09:34:15.482Z,24.51
2018-06-15T09:36:43.883Z,24.47
2018-06-15T09:39:12.898Z,24.41
2018-06-15T09:41:41.826Z,24.39
2018-06-15T09:44:10.219Z,24.36
2018-06-15T09:46:38.666Z,24.37
2018-06-15T09:49:08.006Z,24.43
2018-06-15T09:51:36.398Z,24.43
2018-06-15T09:54:04.775Z,24.44
2018-06-15T09:56:33.178Z,24.47
2018-06-15T09:59:01.554Z,24.48
2018-06-15T10:01:29.947Z,24.49
2018-06-15T10:03:58.318Z,24.49
2018-06-15T10:06:26.715Z,24.49
2018-06-15T10:08:55.110Z,24.50
2018-06-15T10:11:23.491Z,24.47
2018-06-15T10:13:51.887Z,24.45
2018-06-15T10:16:20.258Z,24.42
2018-06-15T10:18:48.659Z,24.41
2018-06-15T10:21:17.030Z,24.46
2018-06-15T10:23:45.423Z,24.50
2018-06-15T10:26:13.799Z,24.56
2018-06-15T10:28:42.195Z,24.65
2018-06-15T10:31:10.575Z,24.77
2018-06-15T10:33:38.976Z,24.92
2018-06-15T10:36:07.360Z,25.05
2018-06-15T10:38:35.762Z,25.12
2018-06-15T10:41:04.151Z,25.19
2018-06-15T10:43:32.551Z,25.20
2018-06-15T10:46:00.930Z,25.18
2018-06-15T10:48:29.342Z,25.12
2018-06-15T10:50:57.727Z,25.01
2018-06-15T10:53:26.126Z,24.93
2018-06-15T10:55:54.507Z,24.82
2018-06-15T10:58:22.893Z,24.69
2018-06-15T11:00:51.259Z,24.60
2018-06-15T11:03:19.654Z,24.53
2018-06-15T11:05:48.055Z,24.49
2018-06-15T11:08:16.458Z,24.50
2018-06-15T11:10:44.863Z,24.51
2018-06-15T11:13:13.262Z,24.53
2018-06-15T11:15:41.638Z,24.60
2018-06-15T11:18:10.150Z,24.66
2018-06-15T11:20:38.599Z,24.77
2018-06-15T11:23:07.015Z,24.84
2018-06-15T11:25:35.411Z,24.92
2018-06-15T11:28:03.788Z,25.06
2018-06-15T11:30:32.216Z,25.16
2018-06-15T11:33:00.597Z,25.25
2018-06-15T11:35:28.996Z,25.34
2018-06-15T11:37:57.378Z,25.41
2018-06-15T11:40:25.783Z,25.50
2018-06-15T11:42:54.159Z,25.56
2018-06-15T11:45:22.572Z,25.62
2018-06-15T11:47:50.968Z,25.63
2018-06-15T11:50:19.364Z,25.68
2018-06-15T11:52:47.739Z,25.70
2018-06-15T11:55:16.151Z,25.78
2018-06-15T11:57:44.534Z,25.83
2018-06-15T12:00:12.968Z,25.86
2018-06-15T12:02:41.342Z,25.86
2018-06-15T12:05:09.763Z,25.80
2018-06-15T12:07:38.142Z,25.75
2018-06-15T12:10:06.547Z,25.72
2018-06-15T12:12:34.931Z,25.61
2018-06-15T12:15:03.343Z,25.51
2018-06-15T12:17:31.714Z,25.48
2018-06-15T12:20:00.115Z,25.62
2018-06-15T12:22:28.491Z,25.78
2018-06-15T12:24:57.115Z,25.94
2018-06-15T12:27:25.554Z,25.96
2018-06-15T12:29:54.075Z,25.96
2018-06-15T12:32:22.458Z,25.98
2018-06-15T12:34:50.856Z,25.92
2018-06-15T12:37:19.235Z,25.91
2018-06-15T12:39:47.646Z,25.87
2018-06-15T12:42:16.022Z,25.92
2018-06-15T12:44:44.430Z,25.98
2018-06-15T12:47:12.834Z,25.95
2018-06-15T12:49:41.210Z,25.91
2018-06-15T12:52:09.598Z,25.88
2018-06-15T12:54:38.254Z,25.83
2018-06-15T12:57:07.070Z,25.80
2018-06-15T12:59:37.131Z,25.79
2018-06-15T13:02:05.582Z,25.84
2018-06-15T13:04:33.985Z,25.88
2018-06-15T13:07:02.423Z,25.95
2018-06-15T13:09:30.797Z,26.00
2018-06-15T13:11:59.191Z,26.05
2018-06-15T13:14:27.586Z,26.13
2018-06-15T13:16:55.992Z,26.21
2018-06-15T13:19:24.377Z,26.26
2018-06-15T13:21:52.775Z,26.30
2018-06-15T13:24:21.143Z,26.28
2018-06-15T13:26:49.539Z,26.21
2018-06-15T13:29:17.918Z,26.20
2018-06-15T13:31:46.307Z,26.19
2018-06-15T13:34:14.730Z,26.28
2018-06-15T13:36:43.127Z,26.37
2018-06-15T13:39:13.074Z,26.38
2018-06-15T13:41:41.483Z,26.41
2018-06-15T13:44:09.854Z,26.39
2018-06-15T13:46:38.246Z,26.38
2018-06-15T13:49:06.694Z,26.45
2018-06-15T13:51:35.095Z,26.51
2018-06-15T13:54:03.656Z,26.51
2018-06-15T13:56:32.047Z,26.51
2018-06-15T13:59:00.418Z,26.49
2018-06-15T14:01:28.819Z,26.47
2018-06-15T14:03:57.464Z,26.49
2018-06-15T14:06:25.878Z,26.56
2018-06-15T14:08:54.255Z,26.55
2018-06-15T14:11:22.703Z,26.52
2018-06-15T14:13:51.095Z,26.50
2018-06-15T14:16:19.467Z,26.48
2018-06-15T14:18:47.867Z,26.50
2018-06-15T14:21:16.247Z,26.54
2018-06-15T14:23:44.642Z,26.62
2018-06-15T14:26:13.302Z,26.73
2018-06-15T14:28:42.367Z,26.82
2018-06-15T14:31:10.742Z,26.91
2018-06-15T14:33:39.139Z,27.02
2018-06-15T14:36:08.057Z,27.06
2018-06-15T14:38:36.458Z,27.10
2018-06-15T14:41:04.849Z,27.06
2018-06-15T14:43:33.243Z,27.00
2018-06-15T14:46:01.655Z,26.97
2018-06-15T14:48:30.066Z,26.94
2018-06-15T14:50:58.438Z,26.84
2018-06-15T14:53:27.032Z,26.81
2018-06-15T14:55:55.409Z,26.80
2018-06-15T14:58:23.864Z,26.82
2018-06-15T15:00:52.210Z,26.75
2018-06-15T15:03:20.602Z,26.60
2018-06-15T15:05:49.001Z,26.46
2018-06-15T15:08:17.438Z,26.36
2018-06-15T15:10:45.810Z,26.25
2018-06-15T15:13:14.242Z,26.18
2018-06-15T15:15:42.646Z,26.13
2018-06-15T15:18:11.049Z,26.18
2018-06-15T15:20:39.427Z,26.35
2018-06-15T15:23:07.839Z,26.52
2018-06-15T15:25:36.218Z,26.57
2018-06-15T15:28:04.676Z,26.65
2018-06-15T15:30:33.058Z,26.64
2018-06-15T15:33:01.440Z,26.59
2018-06-15T15:35:29.838Z,26.47
2018-06-15T15:37:58.250Z,26.32
2018-06-15T15:40:26.650Z,26.24
2018-06-15T15:42:55.019Z,26.18
2018-06-15T15:45:23.423Z,26.14
2018-06-15T15:47:51.795Z,26.08
2018-06-15T15:50:20.196Z,26.03
2018-06-15T15:52:48.578Z,26.12
2018-06-15T15:55:16.974Z,26.24
2018-06-15T15:57:45.397Z,26.26
2018-06-15T16:00:13.775Z,26.32
2018-06-15T16:02:42.160Z,26.43
2018-06-15T16:05:10.605Z,26.59
2018-06-15T16:07:38.983Z,26.77
2018-06-15T16:10:07.454Z,26.95
2018-06-15T16:12:35.834Z,27.07
2018-06-15T16:15:04.231Z,27.10
2018-06-15T16:17:32.612Z,27.05
2018-06-15T16:20:01.022Z,26.83
2018-06-15T16:22:29.396Z,26.51
2018-06-15T16:24:57.799Z,26.27
2018-06-15T16:27:26.195Z,26.11
2018-06-15T16:29:54.608Z,25.96
2018-06-15T16:32:23.018Z,25.84
2018-06-15T16:34:51.424Z,25.74
2018-06-15T16:37:19.817Z,25.61
2018-06-15T16:39:48.235Z,25.50
2018-06-15T16:42:16.714Z,25.44
2018-06-15T16:44:45.114Z,25.40
2018-06-15T16:47:13.490Z,25.35
2018-06-15T16:49:41.906Z,25.30
2018-06-15T16:52:10.647Z,25.26
2018-06-15T16:54:39.027Z,25.18
2018-06-15T16:57:07.566Z,25.00
2018-06-15T16:59:35.959Z,24.82
2018-06-15T17:02:04.393Z,24.63
2018-06-15T17:04:32.771Z,24.44
2018-06-15T17:07:01.194Z,24.26
2018-06-15T17:09:29.571Z,24.03
2018-06-15T17:11:57.974Z,23.80
2018-06-15T17:14:26.359Z,23.59
2018-06-15T17:16:54.759Z,23.43
2018-06-15T17:19:23.150Z,23.30
2018-06-15T17:21:51.690Z,23.15
2018-06-15T17:24:20.645Z,22.97
2018-06-15T17:26:49.087Z,22.83
2018-06-15T17:29:17.477Z,22.70
2018-06-15T17:31:45.878Z,22.60
2018-06-15T17:34:14.255Z,22.49
2018-06-15T17:36:45.103Z,22.40
2018-06-15T17:39:14.354Z,22.31
2018-06-15T17:41:43.886Z,22.21
2018-06-15T17:44:12.270Z,22.11
2018-06-15T17:46:40.679Z,22.03
2018-06-15T17:49:09.425Z,21.97
2018-06-15T17:51:37.914Z,22.04
2018-06-15T17:54:06.609Z,22.02
2018-06-15T17:56:35.114Z,21.95
2018-06-15T17:59:03.534Z,21.90
2018-06-15T18:01:32.146Z,21.86
2018-06-15T18:04:00.520Z,21.82
2018-06-15T18:06:29.107Z,21.78
2018-06-15T18:08:57.551Z,21.75
2018-06-15T18:11:26.025Z,21.70
2018-06-15T18:13:54.514Z,21.66
2018-06-15T18:16:22.907Z,21.61
2018-06-15T18:18:51.298Z,21.55
2018-06-15T18:21:19.711Z,21.47
2018-06-15T18:23:48.118Z,21.42
2018-06-15T18:26:16.498Z,21.35
2018-06-15T18:28:44.926Z,21.31
2018-06-15T18:31:13.315Z,21.25
2018-06-15T18:33:41.715Z,21.20
2018-06-15T18:36:10.096Z,21.12
2018-06-15T18:38:38.508Z,21.07
2018-06-15T18:41:07.075Z,21.02
2018-06-15T18:43:35.488Z,20.96
2018-06-15T18:46:03.890Z,20.90
2018-06-15T18:48:32.367Z,20.85
2018-06-15T18:51:00.747Z,20.81
2018-06-15T18:53:29.150Z,20.77
2018-06-15T18:55:57.539Z,20.69
2018-06-15T18:58:25.952Z,20.62
2018-06-15T19:00:54.655Z,20.52
2018-06-15T19:03:23.219Z,20.42
2018-06-15T19:05:51.623Z,20.33
2018-06-15T19:08:20.027Z,20.23
2018-06-15T19:10:48.418Z,20.16
2018-06-15T19:13:16.839Z,20.06
2018-06-15T19:15:45.218Z,19.99
2018-06-15T19:18:13.622Z,19.90
2018-06-15T19:20:41.999Z,19.82
2018-06-15T19:23:10.403Z,19.74
2018-06-15T19:25:38.783Z,19.69
2018-06-15T19:28:07.185Z,19.65
2018-06-15T19:30:35.570Z,19.60
2018-06-15T19:33:04.043Z,19.53
2018-06-15T19:35:32.430Z,19.48
2018-06-15T19:38:00.857Z,19.42
2018-06-15T19:40:29.232Z,19.36
2018-06-15T19:42:57.598Z,19.23
2018-06-15T19:45:25.999Z,19.21
2018-06-15T19:47:54.380Z,19.15
2018-06-15T19:50:22.783Z,19.10
2018-06-15T19:52:51.158Z,19.05
2018-06-15T19:55:19.558Z,18.99
2018-06-15T19:57:47.930Z,18.98
2018-06-15T20:00:16.338Z,18.96
2018-06-15T20:02:44.763Z,18.92
2018-06-15T20:05:13.328Z,18.91
2018-06-15T20:07:41.671Z,18.88
2018-06-15T20:10:10.073Z,18.85
2018-06-15T20:12:38.470Z,18.81
2018-06-15T20:15:06.879Z,18.79
2018-06-15T20:17:35.254Z,18.78
2018-06-15T20:20:03.783Z,18.77
2018-06-15T20:22:32.163Z,18.78
2018-06-15T20:25:00.571Z,18.80
2018-06-15T20:27:28.942Z,18.80
2018-06-15T20:29:57.347Z,18.80
2018-06-15T20:32:25.731Z,18.78
2018-06-15T20:34:54.135Z,18.76
2018-06-15T20:37:22.511Z,18.73
2018-06-15T20:39:50.914Z,18.71
2018-06-15T20:42:19.303Z,18.71
2018-06-15T20:44:47.706Z,18.70
2018-06-15T20:47:16.087Z,18.70
2018-06-15T20:49:44.506Z,18.68
2018-06-15T20:52:12.890Z,18.67
2018-06-15T20:54:41.333Z,18.66
2018-06-15T20:57:09.756Z,18.64
2018-06-15T20:59:38.183Z,18.64
2018-06-15T21:02:06.585Z,18.65
2018-06-15T21:04:34.962Z,18.64
2018-06-15T21:07:03.362Z,18.63
2018-06-15T21:09:31.748Z,18.60
2018-06-15T21:12:00.147Z,18.56
2018-06-15T21:14:28.578Z,18.52
2018-06-15T21:16:56.974Z,18.51
2018-06-15T21:19:25.353Z,18.49
2018-06-15T21:21:53.756Z,18.46
2018-06-15T21:24:22.130Z,18.45
2018-06-15T21:26:50.526Z,18.43
2018-06-15T21:29:18.898Z,18.41
2018-06-15T21:31:47.294Z,18.38
2018-06-15T21:34:15.666Z,18.35
2018-06-15T21:36:44.075Z,18.34
2018-06-15T21:39:12.458Z,18.31
2018-06-15T21:41:40.859Z,18.29
2018-06-15T21:44:09.240Z,18.25
2018-06-15T21:46:37.638Z,18.23
2018-06-15T21:49:06.011Z,18.22
2018-06-15T21:51:34.691Z,18.21
2018-06-15T21:54:03.128Z,18.20
2018-06-15T21:56:31.527Z,18.17
2018-06-15T21:58:59.899Z,18.15
2018-06-15T22:01:29.947Z,18.14
2018-06-15T22:03:58.914Z,18.17
2018-06-15T22:06:27.422Z,18.17
2018-06-15T22:08:55.803Z,18.14
2018-06-15T22:11:24.206Z,18.15
2018-06-15T22:13:52.606Z,18.14
2018-06-15T22:16:21.055Z,18.15
2018-06-15T22:18:49.426Z,18.14
2018-06-15T22:21:17.835Z,18.14
2018-06-15T22:23:46.239Z,18.12
2018-06-15T22:26:14.612Z,18.12
2018-06-15T22:28:43.011Z,18.12
2018-06-15T22:31:11.388Z,18.04
2018-06-15T22:33:39.787Z,18.09
2018-06-15T22:36:08.182Z,18.08
2018-06-15T22:38:36.594Z,18.06
2018-06-15T22:41:04.971Z,18.03
2018-06-15T22:43:33.373Z,18.01
2018-06-15T22:46:01.747Z,18.01
2018-06-15T22:48:30.182Z,18.01
2018-06-15T22:50:58.562Z,18.00
2018-06-15T22:53:26.967Z,17.99
2018-06-15T22:55:55.348Z,17.97
2018-06-15T22:58:23.751Z,17.93
2018-06-15T23:00:52.126Z,17.87
2018-06-15T23:03:20.532Z,17.84
2018-06-15T23:05:48.917Z,17.81
2018-06-15T23:08:17.319Z,17.77
2018-06-15T23:10:45.703Z,17.75
2018-06-15T23:13:14.175Z,17.74
2018-06-15T23:15:42.550Z,17.71
2018-06-15T23:18:10.967Z,17.72
2018-06-15T23:20:39.347Z,17.71
2018-06-15T23:23:07.750Z,17.74
2018-06-15T23:25:36.124Z,17.74
2018-06-15T23:28:04.694Z,17.73
2018-06-15T23:30:33.071Z,17.73
2018-06-15T23:33:01.483Z,17.73
2018-06-15T23:35:29.866Z,17.71
2018-06-15T23:37:58.264Z,17.72
2018-06-15T23:40:26.634Z,17.69
2018-06-15T23:42:55.035Z,17.67
2018-06-15T23:45:23.430Z,17.68
2018-06-15T23:47:51.806Z,17.68
2018-06-15T23:50:20.202Z,17.68
2018-06-15T23:52:48.585Z,17.68
2018-06-15T23:55:16.978Z,17.68
2018-06-15T23:57:45.373Z,17.66
